sensor_id;sensor_type;location;lat;lon;timestamp;P1;durP1;ratioP1;P2;durP2;ratioP2
21420;SDS011;10871;50.144;8.428;2023-02-01T00:03:04;9.35;;;7.10;;
21420;SDS011;10871;50.144;8.428;2023-02-01T00:06:24;10.68;;;7.38;;
21420;SDS011;10871;50.144;8.428;2023-02-01T00:13:10;9.35;;;7.40;;
21420;SDS011;10871;50.144;8.428;2023-02-01T00:16:26;11.55;;;8.50;;
21420;SDS011;10871;50.144;8.428;2023-02-01T00:24:08;11.35;;;8.23;;
21420;SDS011;10871;50.144;8.428;2023-02-01T00:27:09;14.00;;;9.07;;
21420;SDS011;10871;50.144;8.428;2023-02-01T00:30:54;15.00;;;9.88;;
21420;SDS011;10871;50.144;8.428;2023-02-01T00:51:47;10.10;;;8.35;;
21420;SDS011;10871;50.144;8.428;2023-02-01T00:54:50;11.38;;;8.48;;
21420;SDS011;10871;50.144;8.428;2023-02-01T00:58:28;11.18;;;8.40;;
21420;SDS011;10871;50.144;8.428;2023-02-01T01:04:31;10.80;;;8.13;;
21420;SDS011;10871;50.144;8.428;2023-02-01T01:07:39;11.50;;;8.40;;
21420;SDS011;10871;50.144;8.428;2023-02-01T01:17:10;15.57;;;9.68;;
21420;SDS011;10871;50.144;8.428;2023-02-01T01:20:07;11.40;;;8.20;;
21420;SDS011;10871;50.144;8.428;2023-02-01T01:23:36;11.45;;;8.73;;
21420;SDS011;10871;50.144;8.428;2023-02-01T01:27:02;11.98;;;9.13;;
21420;SDS011;10871;50.144;8.428;2023-02-01T01:37:03;14.05;;;9.27;;
21420;SDS011;10871;50.144;8.428;2023-02-01T01:40:40;12.07;;;9.80;;
21420;SDS011;10871;50.144;8.428;2023-02-01T01:50:44;12.05;;;9.48;;
21420;SDS011;10871;50.144;8.428;2023-02-01T01:54:06;14.95;;;10.07;;
21420;SDS011;10871;50.144;8.428;2023-02-01T01:57:16;15.07;;;10.10;;
21420;SDS011;10871;50.144;8.428;2023-02-01T02:00:24;14.43;;;9.73;;
21420;SDS011;10871;50.144;8.428;2023-02-01T02:03:19;14.32;;;10.57;;
21420;SDS011;10871;50.144;8.428;2023-02-01T02:09:50;13.82;;;9.73;;
21420;SDS011;10871;50.144;8.428;2023-02-01T02:13:06;13.35;;;10.10;;
21420;SDS011;10871;50.144;8.428;2023-02-01T02:38:18;13.23;;;9.95;;
21420;SDS011;10871;50.144;8.428;2023-02-01T02:48:30;13.18;;;9.70;;
21420;SDS011;10871;50.144;8.428;2023-02-01T02:59:24;13.85;;;8.77;;
21420;SDS011;10871;50.144;8.428;2023-02-01T03:02:36;9.73;;;7.43;;
21420;SDS011;10871;50.144;8.428;2023-02-01T03:06:09;13.07;;;8.45;;
21420;SDS011;10871;50.144;8.428;2023-02-01T03:12:50;15.25;;;8.93;;
21420;SDS011;10871;50.144;8.428;2023-02-01T03:19:40;13.77;;;7.95;;
21420;SDS011;10871;50.144;8.428;2023-02-01T03:27:13;11.87;;;7.30;;
21420;SDS011;10871;50.144;8.428;2023-02-01T03:34:21;11.95;;;6.82;;
21420;SDS011;10871;50.144;8.428;2023-02-01T03:37:31;17.35;;;7.68;;
21420;SDS011;10871;50.144;8.428;2023-02-01T03:48:18;11.77;;;6.90;;
21420;SDS011;10871;50.144;8.428;2023-02-01T03:51:49;10.52;;;6.43;;
21420;SDS011;10871;50.144;8.428;2023-02-01T03:58:44;11.88;;;7.00;;
21420;SDS011;10871;50.144;8.428;2023-02-01T04:02:19;11.73;;;6.35;;
21420;SDS011;10871;50.144;8.428;2023-02-01T04:09:52;14.02;;;7.55;;
21420;SDS011;10871;50.144;8.428;2023-02-01T04:16:48;13.05;;;8.25;;
21420;SDS011;10871;50.144;8.428;2023-02-01T04:31:24;14.85;;;8.23;;
21420;SDS011;10871;50.144;8.428;2023-02-01T04:39:08;14.82;;;7.72;;
21420;SDS011;10871;50.144;8.428;2023-02-01T04:42:28;12.70;;;7.15;;
21420;SDS011;10871;50.144;8.428;2023-02-01T04:50:00;14.93;;;6.22;;
21420;SDS011;10871;50.144;8.428;2023-02-01T04:54:02;12.13;;;6.13;;
21420;SDS011;10871;50.144;8.428;2023-02-01T05:01:26;14.02;;;5.90;;
21420;SDS011;10871;50.144;8.428;2023-02-01T05:23:27;14.63;;;5.78;;
21420;SDS011;10871;50.144;8.428;2023-02-01T05:30:23;13.50;;;4.60;;
21420;SDS011;10871;50.144;8.428;2023-02-01T05:33:36;13.27;;;4.90;;
21420;SDS011;10871;50.144;8.428;2023-02-01T05:36:02;14.57;;;5.40;;
21420;SDS011;10871;50.144;8.428;2023-02-01T05:38:32;13.32;;;5.30;;
21420;SDS011;10871;50.144;8.428;2023-02-01T05:40:58;15.05;;;4.80;;
21420;SDS011;10871;50.144;8.428;2023-02-01T05:43:24;16.52;;;5.55;;
21420;SDS011;10871;50.144;8.428;2023-02-01T05:45:51;11.73;;;5.13;;
21420;SDS011;10871;50.144;8.428;2023-02-01T05:48:17;18.02;;;4.88;;
21420;SDS011;10871;50.144;8.428;2023-02-01T05:50:44;17.63;;;5.20;;
21420;SDS011;10871;50.144;8.428;2023-02-01T05:53:10;16.60;;;4.90;;
21420;SDS011;10871;50.144;8.428;2023-02-01T05:55:37;24.08;;;5.10;;
21420;SDS011;10871;50.144;8.428;2023-02-01T05:58:04;15.32;;;5.15;;
21420;SDS011;10871;50.144;8.428;2023-02-01T06:00:30;21.92;;;5.25;;
21420;SDS011;10871;50.144;8.428;2023-02-01T06:02:57;18.42;;;4.30;;
21420;SDS011;10871;50.144;8.428;2023-02-01T06:05:23;23.02;;;5.30;;
21420;SDS011;10871;50.144;8.428;2023-02-01T06:07:50;13.77;;;5.22;;
21420;SDS011;10871;50.144;8.428;2023-02-01T06:10:16;21.08;;;5.50;;
21420;SDS011;10871;50.144;8.428;2023-02-01T06:12:43;12.30;;;4.47;;
21420;SDS011;10871;50.144;8.428;2023-02-01T06:15:11;19.00;;;4.80;;
21420;SDS011;10871;50.144;8.428;2023-02-01T06:17:38;18.25;;;5.13;;
21420;SDS011;10871;50.144;8.428;2023-02-01T06:20:05;19.00;;;5.32;;
21420;SDS011;10871;50.144;8.428;2023-02-01T06:22:32;15.27;;;5.88;;
21420;SDS011;10871;50.144;8.428;2023-02-01T06:24:59;13.60;;;5.57;;
21420;SDS011;10871;50.144;8.428;2023-02-01T06:27:25;15.90;;;4.70;;
21420;SDS011;10871;50.144;8.428;2023-02-01T06:29:51;18.35;;;5.07;;
21420;SDS011;10871;50.144;8.428;2023-02-01T06:32:19;15.60;;;5.13;;
21420;SDS011;10871;50.144;8.428;2023-02-01T06:34:45;17.92;;;5.00;;
21420;SDS011;10871;50.144;8.428;2023-02-01T06:37:12;22.88;;;5.57;;
21420;SDS011;10871;50.144;8.428;2023-02-01T06:39:38;16.40;;;5.00;;
21420;SDS011;10871;50.144;8.428;2023-02-01T06:42:04;21.58;;;5.10;;
21420;SDS011;10871;50.144;8.428;2023-02-01T06:44:31;17.58;;;5.38;;
21420;SDS011;10871;50.144;8.428;2023-02-01T06:46:57;13.07;;;4.40;;
21420;SDS011;10871;50.144;8.428;2023-02-01T06:49:24;15.40;;;4.47;;
21420;SDS011;10871;50.144;8.428;2023-02-01T06:51:50;13.40;;;5.30;;
21420;SDS011;10871;50.144;8.428;2023-02-01T06:54:16;15.05;;;4.85;;
21420;SDS011;10871;50.144;8.428;2023-02-01T06:56:43;15.82;;;4.95;;
21420;SDS011;10871;50.144;8.428;2023-02-01T06:59:09;15.20;;;4.63;;
21420;SDS011;10871;50.144;8.428;2023-02-01T07:01:36;18.05;;;5.38;;
21420;SDS011;10871;50.144;8.428;2023-02-01T07:04:02;19.50;;;4.60;;
21420;SDS011;10871;50.144;8.428;2023-02-01T07:06:29;15.68;;;4.63;;
21420;SDS011;10871;50.144;8.428;2023-02-01T07:08:55;19.90;;;5.15;;
21420;SDS011;10871;50.144;8.428;2023-02-01T07:11:23;16.75;;;3.97;;
21420;SDS011;10871;50.144;8.428;2023-02-01T07:13:49;16.52;;;4.47;;
21420;SDS011;10871;50.144;8.428;2023-02-01T07:16:16;19.42;;;4.43;;
21420;SDS011;10871;50.144;8.428;2023-02-01T07:18:43;13.65;;;4.10;;
21420;SDS011;10871;50.144;8.428;2023-02-01T07:21:10;13.20;;;3.55;;
21420;SDS011;10871;50.144;8.428;2023-02-01T07:23:37;14.45;;;4.53;;
21420;SDS011;10871;50.144;8.428;2023-02-01T07:26:04;15.52;;;4.32;;
21420;SDS011;10871;50.144;8.428;2023-02-01T07:28:32;13.88;;;3.88;;
21420;SDS011;10871;50.144;8.428;2023-02-01T07:31:05;12.63;;;3.90;;
21420;SDS011;10871;50.144;8.428;2023-02-01T07:33:32;12.63;;;3.83;;
21420;SDS011;10871;50.144;8.428;2023-02-01T07:36:00;16.55;;;3.90;;
21420;SDS011;10871;50.144;8.428;2023-02-01T07:38:26;12.60;;;3.92;;
21420;SDS011;10871;50.144;8.428;2023-02-01T07:40:57;15.75;;;4.40;;
21420;SDS011;10871;50.144;8.428;2023-02-01T07:43:24;10.15;;;3.90;;
21420;SDS011;10871;50.144;8.428;2023-02-01T07:45:51;13.32;;;3.55;;
21420;SDS011;10871;50.144;8.428;2023-02-01T07:48:18;14.88;;;4.07;;
21420;SDS011;10871;50.144;8.428;2023-02-01T07:50:44;15.70;;;3.72;;
21420;SDS011;10871;50.144;8.428;2023-02-01T07:53:11;16.15;;;3.92;;
21420;SDS011;10871;50.144;8.428;2023-02-01T07:55:37;16.65;;;3.45;;
21420;SDS011;10871;50.144;8.428;2023-02-01T07:58:04;14.23;;;3.30;;
21420;SDS011;10871;50.144;8.428;2023-02-01T08:00:30;18.27;;;3.72;;
21420;SDS011;10871;50.144;8.428;2023-02-01T08:03:15;14.30;;;3.53;;
21420;SDS011;10871;50.144;8.428;2023-02-01T08:05:42;14.00;;;3.55;;
21420;SDS011;10871;50.144;8.428;2023-02-01T08:08:09;19.17;;;3.28;;
21420;SDS011;10871;50.144;8.428;2023-02-01T08:10:35;12.60;;;3.10;;
21420;SDS011;10871;50.144;8.428;2023-02-01T08:13:02;13.73;;;3.03;;
21420;SDS011;10871;50.144;8.428;2023-02-01T08:15:28;12.38;;;3.13;;
21420;SDS011;10871;50.144;8.428;2023-02-01T08:17:55;11.70;;;3.05;;
21420;SDS011;10871;50.144;8.428;2023-02-01T08:20:22;13.93;;;3.47;;
21420;SDS011;10871;50.144;8.428;2023-02-01T08:22:54;12.45;;;3.20;;
21420;SDS011;10871;50.144;8.428;2023-02-01T08:25:22;18.17;;;3.58;;
21420;SDS011;10871;50.144;8.428;2023-02-01T08:27:49;15.65;;;3.60;;
21420;SDS011;10871;50.144;8.428;2023-02-01T08:30:15;9.43;;;3.58;;
21420;SDS011;10871;50.144;8.428;2023-02-01T08:32:42;11.02;;;3.97;;
21420;SDS011;10871;50.144;8.428;2023-02-01T08:35:08;13.63;;;3.67;;
21420;SDS011;10871;50.144;8.428;2023-02-01T08:37:35;14.38;;;3.70;;
21420;SDS011;10871;50.144;8.428;2023-02-01T08:40:01;14.20;;;4.35;;
21420;SDS011;10871;50.144;8.428;2023-02-01T08:42:28;14.85;;;4.32;;
21420;SDS011;10871;50.144;8.428;2023-02-01T08:45:13;11.65;;;3.35;;
21420;SDS011;10871;50.144;8.428;2023-02-01T08:47:39;16.10;;;4.40;;
21420;SDS011;10871;50.144;8.428;2023-02-01T08:50:06;14.35;;;4.20;;
21420;SDS011;10871;50.144;8.428;2023-02-01T08:52:33;13.57;;;4.45;;
21420;SDS011;10871;50.144;8.428;2023-02-01T08:54:59;9.23;;;3.55;;
21420;SDS011;10871;50.144;8.428;2023-02-01T08:57:25;11.82;;;3.92;;
21420;SDS011;10871;50.144;8.428;2023-02-01T08:59:51;10.50;;;3.70;;
21420;SDS011;10871;50.144;8.428;2023-02-01T09:02:18;13.52;;;3.90;;
21420;SDS011;10871;50.144;8.428;2023-02-01T09:04:44;17.02;;;4.68;;
21420;SDS011;10871;50.144;8.428;2023-02-01T09:07:11;11.77;;;4.22;;
21420;SDS011;10871;50.144;8.428;2023-02-01T09:09:39;13.38;;;4.25;;
21420;SDS011;10871;50.144;8.428;2023-02-01T09:12:05;14.98;;;3.72;;
21420;SDS011;10871;50.144;8.428;2023-02-01T09:14:32;19.67;;;4.63;;
21420;SDS011;10871;50.144;8.428;2023-02-01T09:16:58;14.55;;;4.32;;
21420;SDS011;10871;50.144;8.428;2023-02-01T09:19:25;10.15;;;4.03;;
21420;SDS011;10871;50.144;8.428;2023-02-01T09:21:52;15.68;;;4.68;;
21420;SDS011;10871;50.144;8.428;2023-02-01T09:24:18;13.90;;;4.75;;
21420;SDS011;10871;50.144;8.428;2023-02-01T09:26:45;14.63;;;4.30;;
21420;SDS011;10871;50.144;8.428;2023-02-01T09:29:11;17.73;;;4.90;;
21420;SDS011;10871;50.144;8.428;2023-02-01T09:31:39;12.93;;;4.32;;
21420;SDS011;10871;50.144;8.428;2023-02-01T09:36:38;13.80;;;4.43;;
21420;SDS011;10871;50.144;8.428;2023-02-01T09:39:04;10.65;;;3.83;;
21420;SDS011;10871;50.144;8.428;2023-02-01T09:44:04;17.13;;;4.57;;
21420;SDS011;10871;50.144;8.428;2023-02-01T09:46:34;12.57;;;4.05;;
21420;SDS011;10871;50.144;8.428;2023-02-01T09:49:05;13.65;;;4.28;;
21420;SDS011;10871;50.144;8.428;2023-02-01T09:51:33;11.93;;;4.10;;
21420;SDS011;10871;50.144;8.428;2023-02-01T09:54:02;12.10;;;4.07;;
21420;SDS011;10871;50.144;8.428;2023-02-01T09:56:35;12.20;;;3.78;;
21420;SDS011;10871;50.144;8.428;2023-02-01T09:59:10;14.48;;;3.75;;
21420;SDS011;10871;50.144;8.428;2023-02-01T10:01:39;9.80;;;3.53;;
21420;SDS011;10871;50.144;8.428;2023-02-01T10:04:07;14.13;;;3.92;;
21420;SDS011;10871;50.144;8.428;2023-02-01T10:09:25;10.88;;;3.72;;
21420;SDS011;10871;50.144;8.428;2023-02-01T10:16:51;10.93;;;3.80;;
21420;SDS011;10871;50.144;8.428;2023-02-01T10:21:51;8.73;;;3.30;;
21420;SDS011;10871;50.144;8.428;2023-02-01T10:24:22;8.25;;;3.13;;
21420;SDS011;10871;50.144;8.428;2023-02-01T10:26:54;13.88;;;3.47;;
21420;SDS011;10871;50.144;8.428;2023-02-01T10:29:22;8.60;;;3.25;;
21420;SDS011;10871;50.144;8.428;2023-02-01T10:31:51;10.05;;;3.30;;
21420;SDS011;10871;50.144;8.428;2023-02-01T10:34:21;13.13;;;3.50;;
21420;SDS011;10871;50.144;8.428;2023-02-01T10:36:53;15.00;;;3.92;;
21420;SDS011;10871;50.144;8.428;2023-02-01T10:39:20;13.00;;;3.90;;
21420;SDS011;10871;50.144;8.428;2023-02-01T10:41:47;12.55;;;3.75;;
21420;SDS011;10871;50.144;8.428;2023-02-01T10:44:24;13.15;;;3.80;;
21420;SDS011;10871;50.144;8.428;2023-02-01T10:46:51;9.55;;;3.67;;
21420;SDS011;10871;50.144;8.428;2023-02-01T10:49:19;10.80;;;4.20;;
21420;SDS011;10871;50.144;8.428;2023-02-01T10:51:51;11.13;;;3.60;;
21420;SDS011;10871;50.144;8.428;2023-02-01T10:54:20;11.20;;;3.88;;
21420;SDS011;10871;50.144;8.428;2023-02-01T10:56:47;11.95;;;4.07;;
21420;SDS011;10871;50.144;8.428;2023-02-01T10:59:15;18.35;;;4.65;;
21420;SDS011;10871;50.144;8.428;2023-02-01T11:01:42;10.48;;;3.45;;
21420;SDS011;10871;50.144;8.428;2023-02-01T11:04:12;8.77;;;3.35;;
21420;SDS011;10871;50.144;8.428;2023-02-01T11:06:43;15.05;;;4.38;;
21420;SDS011;10871;50.144;8.428;2023-02-01T11:09:20;13.00;;;4.00;;
21420;SDS011;10871;50.144;8.428;2023-02-01T11:14:37;10.52;;;3.67;;
21420;SDS011;10871;50.144;8.428;2023-02-01T11:17:01;7.65;;;3.28;;
21420;SDS011;10871;50.144;8.428;2023-02-01T11:19:36;13.70;;;3.70;;
21420;SDS011;10871;50.144;8.428;2023-02-01T11:22:04;12.20;;;3.97;;
21420;SDS011;10871;50.144;8.428;2023-02-01T11:24:32;12.70;;;3.45;;
21420;SDS011;10871;50.144;8.428;2023-02-01T11:27:01;12.00;;;3.35;;
21420;SDS011;10871;50.144;8.428;2023-02-01T11:29:34;12.07;;;3.53;;
21420;SDS011;10871;50.144;8.428;2023-02-01T11:32:02;14.32;;;3.58;;
21420;SDS011;10871;50.144;8.428;2023-02-01T11:34:40;10.90;;;3.90;;
21420;SDS011;10871;50.144;8.428;2023-02-01T11:37:14;10.15;;;3.47;;
21420;SDS011;10871;50.144;8.428;2023-02-01T11:39:42;10.52;;;3.40;;
21420;SDS011;10871;50.144;8.428;2023-02-01T11:42:18;9.63;;;3.75;;
21420;SDS011;10871;50.144;8.428;2023-02-01T11:44:45;9.40;;;3.38;;
21420;SDS011;10871;50.144;8.428;2023-02-01T11:47:25;10.30;;;3.67;;
21420;SDS011;10871;50.144;8.428;2023-02-01T11:49:52;9.05;;;3.38;;
21420;SDS011;10871;50.144;8.428;2023-02-01T11:57:32;9.38;;;3.42;;
21420;SDS011;10871;50.144;8.428;2023-02-01T12:02:45;9.55;;;3.20;;
21420;SDS011;10871;50.144;8.428;2023-02-01T12:05:36;9.90;;;3.38;;
21420;SDS011;10871;50.144;8.428;2023-02-01T12:08:17;8.68;;;3.40;;
21420;SDS011;10871;50.144;8.428;2023-02-01T12:11:01;14.25;;;3.63;;
21420;SDS011;10871;50.144;8.428;2023-02-01T12:18:54;10.25;;;3.85;;
21420;SDS011;10871;50.144;8.428;2023-02-01T12:34:52;11.10;;;3.30;;
21420;SDS011;10871;50.144;8.428;2023-02-01T12:42:29;8.95;;;3.13;;
21420;SDS011;10871;50.144;8.428;2023-02-01T12:45:11;12.30;;;3.80;;
21420;SDS011;10871;50.144;8.428;2023-02-01T12:47:41;10.13;;;3.22;;
21420;SDS011;10871;50.144;8.428;2023-02-01T12:52:42;12.52;;;3.95;;
21420;SDS011;10871;50.144;8.428;2023-02-01T12:57:45;12.70;;;3.30;;
21420;SDS011;10871;50.144;8.428;2023-02-01T13:00:32;9.93;;;3.25;;
21420;SDS011;10871;50.144;8.428;2023-02-01T13:03:17;13.35;;;3.95;;
21420;SDS011;10871;50.144;8.428;2023-02-01T13:08:21;9.25;;;3.95;;
21420;SDS011;10871;50.144;8.428;2023-02-01T13:11:00;6.95;;;3.42;;
21420;SDS011;10871;50.144;8.428;2023-02-01T13:13:29;9.68;;;3.65;;
21420;SDS011;10871;50.144;8.428;2023-02-01T13:15:57;11.57;;;3.60;;
21420;SDS011;10871;50.144;8.428;2023-02-01T13:18:25;9.63;;;3.58;;
21420;SDS011;10871;50.144;8.428;2023-02-01T13:21:04;15.43;;;3.60;;
21420;SDS011;10871;50.144;8.428;2023-02-01T13:23:34;9.00;;;3.30;;
21420;SDS011;10871;50.144;8.428;2023-02-01T13:26:01;11.60;;;3.28;;
21420;SDS011;10871;50.144;8.428;2023-02-01T13:28:28;10.40;;;3.40;;
21420;SDS011;10871;50.144;8.428;2023-02-01T13:38:54;10.32;;;3.28;;
21420;SDS011;10871;50.144;8.428;2023-02-01T13:41:32;12.48;;;3.40;;
21420;SDS011;10871;50.144;8.428;2023-02-01T13:44:02;9.68;;;3.22;;
21420;SDS011;10871;50.144;8.428;2023-02-01T13:46:30;9.77;;;3.15;;
21420;SDS011;10871;50.144;8.428;2023-02-01T13:49:04;11.13;;;3.22;;
21420;SDS011;10871;50.144;8.428;2023-02-01T13:51:40;8.90;;;2.75;;
21420;SDS011;10871;50.144;8.428;2023-02-01T13:54:21;7.45;;;3.60;;
21420;SDS011;10871;50.144;8.428;2023-02-01T13:56:49;12.60;;;3.38;;
21420;SDS011;10871;50.144;8.428;2023-02-01T13:59:36;9.32;;;3.28;;
21420;SDS011;10871;50.144;8.428;2023-02-01T14:04:49;10.52;;;2.83;;
21420;SDS011;10871;50.144;8.428;2023-02-01T14:07:20;10.10;;;3.60;;
21420;SDS011;10871;50.144;8.428;2023-02-01T14:09:46;11.38;;;3.28;;
21420;SDS011;10871;50.144;8.428;2023-02-01T14:17:44;12.75;;;3.40;;
21420;SDS011;10871;50.144;8.428;2023-02-01T14:23:02;11.40;;;3.33;;
21420;SDS011;10871;50.144;8.428;2023-02-01T14:25:32;11.20;;;3.10;;
21420;SDS011;10871;50.144;8.428;2023-02-01T14:27:59;10.07;;;2.90;;
21420;SDS011;10871;50.144;8.428;2023-02-01T14:30:25;11.85;;;3.42;;
21420;SDS011;10871;50.144;8.428;2023-02-01T14:32:52;11.85;;;2.90;;
21420;SDS011;10871;50.144;8.428;2023-02-01T14:35:19;11.93;;;3.20;;
21420;SDS011;10871;50.144;8.428;2023-02-01T14:37:50;15.10;;;3.67;;
21420;SDS011;10871;50.144;8.428;2023-02-01T14:40:23;11.98;;;3.45;;
21420;SDS011;10871;50.144;8.428;2023-02-01T14:42:51;10.82;;;3.50;;
21420;SDS011;10871;50.144;8.428;2023-02-01T14:48:39;15.88;;;3.65;;
21420;SDS011;10871;50.144;8.428;2023-02-01T14:50:39;10.07;;;3.05;;
21420;SDS011;10871;50.144;8.428;2023-02-01T14:58:06;10.05;;;3.22;;
21420;SDS011;10871;50.144;8.428;2023-02-01T15:00:46;10.00;;;3.00;;
21420;SDS011;10871;50.144;8.428;2023-02-01T15:03:25;16.58;;;3.47;;
21420;SDS011;10871;50.144;8.428;2023-02-01T15:05:55;6.45;;;2.50;;
21420;SDS011;10871;50.144;8.428;2023-02-01T15:08:33;10.50;;;3.50;;
21420;SDS011;10871;50.144;8.428;2023-02-01T15:11:00;11.25;;;3.20;;
21420;SDS011;10871;50.144;8.428;2023-02-01T15:13:28;16.27;;;3.08;;
21420;SDS011;10871;50.144;8.428;2023-02-01T15:16:11;9.13;;;2.83;;
21420;SDS011;10871;50.144;8.428;2023-02-01T15:18:38;11.30;;;3.20;;
21420;SDS011;10871;50.144;8.428;2023-02-01T15:21:05;13.27;;;3.42;;
21420;SDS011;10871;50.144;8.428;2023-02-01T15:23:55;8.15;;;3.20;;
21420;SDS011;10871;50.144;8.428;2023-02-01T15:26:35;13.95;;;3.50;;
21420;SDS011;10871;50.144;8.428;2023-02-01T15:29:02;9.57;;;3.47;;
21420;SDS011;10871;50.144;8.428;2023-02-01T15:31:38;8.50;;;3.05;;
21420;SDS011;10871;50.144;8.428;2023-02-01T15:34:06;10.65;;;3.05;;
21420;SDS011;10871;50.144;8.428;2023-02-01T15:36:33;12.85;;;2.85;;
21420;SDS011;10871;50.144;8.428;2023-02-01T15:41:38;11.45;;;2.97;;
21420;SDS011;10871;50.144;8.428;2023-02-01T15:44:17;14.57;;;4.32;;
21420;SDS011;10871;50.144;8.428;2023-02-01T15:46:45;11.43;;;2.97;;
21420;SDS011;10871;50.144;8.428;2023-02-01T15:49:20;10.98;;;3.47;;
21420;SDS011;10871;50.144;8.428;2023-02-01T15:51:47;7.90;;;2.85;;
21420;SDS011;10871;50.144;8.428;2023-02-01T15:54:22;11.70;;;3.22;;
21420;SDS011;10871;50.144;8.428;2023-02-01T15:56:51;13.13;;;3.40;;
21420;SDS011;10871;50.144;8.428;2023-02-01T15:59:19;10.77;;;3.35;;
21420;SDS011;10871;50.144;8.428;2023-02-01T16:01:46;9.88;;;3.10;;
21420;SDS011;10871;50.144;8.428;2023-02-01T16:06:50;9.38;;;2.90;;
21420;SDS011;10871;50.144;8.428;2023-02-01T16:11:52;8.55;;;2.88;;
21420;SDS011;10871;50.144;8.428;2023-02-01T16:14:19;9.15;;;3.28;;
21420;SDS011;10871;50.144;8.428;2023-02-01T16:16:46;9.75;;;4.18;;
21420;SDS011;10871;50.144;8.428;2023-02-01T16:19:12;11.85;;;5.00;;
21420;SDS011;10871;50.144;8.428;2023-02-01T16:21:38;10.45;;;3.40;;
21420;SDS011;10871;50.144;8.428;2023-02-01T16:24:05;14.57;;;3.20;;
21420;SDS011;10871;50.144;8.428;2023-02-01T16:26:32;9.48;;;3.47;;
21420;SDS011;10871;50.144;8.428;2023-02-01T16:28:59;9.27;;;2.97;;
21420;SDS011;10871;50.144;8.428;2023-02-01T16:31:28;11.85;;;2.75;;
21420;SDS011;10871;50.144;8.428;2023-02-01T16:33:56;10.10;;;2.88;;
21420;SDS011;10871;50.144;8.428;2023-02-01T16:36:22;9.95;;;3.00;;
21420;SDS011;10871;50.144;8.428;2023-02-01T16:38:50;12.95;;;3.53;;
21420;SDS011;10871;50.144;8.428;2023-02-01T16:41:20;12.65;;;3.20;;
21420;SDS011;10871;50.144;8.428;2023-02-01T16:43:50;11.18;;;3.55;;
21420;SDS011;10871;50.144;8.428;2023-02-01T16:46:18;10.50;;;3.13;;
21420;SDS011;10871;50.144;8.428;2023-02-01T16:48:54;12.20;;;3.22;;
21420;SDS011;10871;50.144;8.428;2023-02-01T16:51:21;6.75;;;3.00;;
21420;SDS011;10871;50.144;8.428;2023-02-01T16:53:48;8.10;;;2.95;;
21420;SDS011;10871;50.144;8.428;2023-02-01T16:56:23;9.48;;;3.08;;
21420;SDS011;10871;50.144;8.428;2023-02-01T16:58:51;8.18;;;2.85;;
21420;SDS011;10871;50.144;8.428;2023-02-01T17:01:19;9.13;;;3.15;;
21420;SDS011;10871;50.144;8.428;2023-02-01T17:03:45;9.57;;;2.97;;
21420;SDS011;10871;50.144;8.428;2023-02-01T17:06:14;11.07;;;2.92;;
21420;SDS011;10871;50.144;8.428;2023-02-01T17:08:41;10.20;;;3.08;;
21420;SDS011;10871;50.144;8.428;2023-02-01T17:11:09;9.35;;;3.40;;
21420;SDS011;10871;50.144;8.428;2023-02-01T17:13:36;10.18;;;3.25;;
21420;SDS011;10871;50.144;8.428;2023-02-01T17:16:04;9.80;;;3.63;;
21420;SDS011;10871;50.144;8.428;2023-02-01T17:18:32;9.07;;;3.67;;
21420;SDS011;10871;50.144;8.428;2023-02-01T17:20:59;11.93;;;2.80;;
21420;SDS011;10871;50.144;8.428;2023-02-01T17:23:26;9.02;;;2.85;;
21420;SDS011;10871;50.144;8.428;2023-02-01T17:25:54;11.88;;;2.97;;
21420;SDS011;10871;50.144;8.428;2023-02-01T17:28:20;13.77;;;3.15;;
21420;SDS011;10871;50.144;8.428;2023-02-01T17:30:47;14.02;;;3.35;;
21420;SDS011;10871;50.144;8.428;2023-02-01T17:33:19;8.07;;;2.60;;
21420;SDS011;10871;50.144;8.428;2023-02-01T17:35:47;15.13;;;3.28;;
21420;SDS011;10871;50.144;8.428;2023-02-01T17:38:14;11.43;;;2.95;;
21420;SDS011;10871;50.144;8.428;2023-02-01T17:40:41;6.53;;;3.00;;
21420;SDS011;10871;50.144;8.428;2023-02-01T17:43:25;10.93;;;2.97;;
21420;SDS011;10871;50.144;8.428;2023-02-01T17:46:03;12.80;;;3.30;;
21420;SDS011;10871;50.144;8.428;2023-02-01T17:48:29;11.98;;;3.13;;
21420;SDS011;10871;50.144;8.428;2023-02-01T17:50:56;10.55;;;2.72;;
21420;SDS011;10871;50.144;8.428;2023-02-01T17:53:25;14.05;;;3.33;;
21420;SDS011;10871;50.144;8.428;2023-02-01T17:55:52;12.15;;;3.40;;
21420;SDS011;10871;50.144;8.428;2023-02-01T17:58:18;11.45;;;2.90;;
21420;SDS011;10871;50.144;8.428;2023-02-01T18:00:45;11.10;;;3.45;;
21420;SDS011;10871;50.144;8.428;2023-02-01T18:03:17;11.95;;;3.00;;
21420;SDS011;10871;50.144;8.428;2023-02-01T18:05:44;13.10;;;2.97;;
21420;SDS011;10871;50.144;8.428;2023-02-01T18:08:16;9.35;;;3.17;;
21420;SDS011;10871;50.144;8.428;2023-02-01T18:10:43;12.48;;;3.05;;
21420;SDS011;10871;50.144;8.428;2023-02-01T18:13:12;10.88;;;3.22;;
21420;SDS011;10871;50.144;8.428;2023-02-01T18:15:39;13.18;;;3.42;;
21420;SDS011;10871;50.144;8.428;2023-02-01T18:18:05;11.90;;;3.80;;
21420;SDS011;10871;50.144;8.428;2023-02-01T18:20:31;13.13;;;3.30;;
21420;SDS011;10871;50.144;8.428;2023-02-01T18:22:58;14.55;;;3.28;;
21420;SDS011;10871;50.144;8.428;2023-02-01T18:25:25;15.35;;;3.60;;
21420;SDS011;10871;50.144;8.428;2023-02-01T18:27:52;10.82;;;3.20;;
21420;SDS011;10871;50.144;8.428;2023-02-01T18:30:20;12.05;;;3.45;;
21420;SDS011;10871;50.144;8.428;2023-02-01T18:32:47;10.60;;;3.60;;
21420;SDS011;10871;50.144;8.428;2023-02-01T18:35:15;10.90;;;3.20;;
21420;SDS011;10871;50.144;8.428;2023-02-01T18:37:41;13.48;;;2.92;;
21420;SDS011;10871;50.144;8.428;2023-02-01T18:40:11;17.23;;;3.60;;
21420;SDS011;10871;50.144;8.428;2023-02-01T18:42:38;13.45;;;3.53;;
21420;SDS011;10871;50.144;8.428;2023-02-01T18:45:04;13.18;;;3.35;;
21420;SDS011;10871;50.144;8.428;2023-02-01T18:47:31;13.23;;;3.53;;
21420;SDS011;10871;50.144;8.428;2023-02-01T18:49:57;13.23;;;3.78;;
21420;SDS011;10871;50.144;8.428;2023-02-01T18:52:23;16.20;;;3.38;;
21420;SDS011;10871;50.144;8.428;2023-02-01T18:54:50;16.63;;;3.47;;
21420;SDS011;10871;50.144;8.428;2023-02-01T18:57:25;12.05;;;3.90;;
21420;SDS011;10871;50.144;8.428;2023-02-01T18:59:51;15.25;;;4.25;;
21420;SDS011;10871;50.144;8.428;2023-02-01T19:02:17;18.30;;;3.83;;
21420;SDS011;10871;50.144;8.428;2023-02-01T19:04:44;11.05;;;3.75;;
21420;SDS011;10871;50.144;8.428;2023-02-01T19:07:10;10.85;;;3.78;;
21420;SDS011;10871;50.144;8.428;2023-02-01T19:09:37;19.77;;;4.28;;
21420;SDS011;10871;50.144;8.428;2023-02-01T19:12:04;17.92;;;4.03;;
21420;SDS011;10871;50.144;8.428;2023-02-01T19:14:31;13.57;;;3.65;;
21420;SDS011;10871;50.144;8.428;2023-02-01T19:16:57;15.55;;;3.83;;
21420;SDS011;10871;50.144;8.428;2023-02-01T19:19:25;11.20;;;3.40;;
21420;SDS011;10871;50.144;8.428;2023-02-01T19:21:51;17.38;;;3.35;;
21420;SDS011;10871;50.144;8.428;2023-02-01T19:24:18;18.25;;;3.80;;
21420;SDS011;10871;50.144;8.428;2023-02-01T19:26:44;14.27;;;3.70;;
21420;SDS011;10871;50.144;8.428;2023-02-01T19:29:10;13.75;;;3.75;;
21420;SDS011;10871;50.144;8.428;2023-02-01T19:31:37;16.75;;;3.88;;
21420;SDS011;10871;50.144;8.428;2023-02-01T19:34:03;12.73;;;3.33;;
21420;SDS011;10871;50.144;8.428;2023-02-01T19:36:29;12.30;;;3.20;;
21420;SDS011;10871;50.144;8.428;2023-02-01T19:38:56;10.93;;;3.40;;
21420;SDS011;10871;50.144;8.428;2023-02-01T19:41:22;11.55;;;3.40;;
21420;SDS011;10871;50.144;8.428;2023-02-01T19:43:48;9.55;;;3.03;;
21420;SDS011;10871;50.144;8.428;2023-02-01T19:46:15;12.05;;;3.70;;
21420;SDS011;10871;50.144;8.428;2023-02-01T19:48:41;8.77;;;3.00;;